createdAt,value
2022-10-30T00:00:34.735Z,13.25
2022-10-30T00:03:38.622Z,18.52
2022-10-30T00:06:41.334Z,15.43
2022-10-30T00:09:44.071Z,16.55
2022-10-30T00:12:47.614Z,15.98
2022-10-30T00:15:50.709Z,13.50
2022-10-30T00:18:54.541Z,14.75
2022-10-30T00:25:00.239Z,14.20
2022-10-30T00:28:06.026Z,14.27
2022-10-30T00:31:08.498Z,10.90
2022-10-30T00:34:12.312Z,10.07
2022-10-30T00:37:14.813Z,13.65
2022-10-30T00:40:20.366Z,14.77
2022-10-30T00:43:29.573Z,10.75
2022-10-30T00:46:36.322Z,8.57
2022-10-30T00:49:44.828Z,9.23
2022-10-30T00:52:49.837Z,11.60
2022-10-30T00:55:55.897Z,10.55
2022-10-30T00:59:00.041Z,8.02
2022-10-30T01:02:04.930Z,12.52
2022-10-30T01:05:11.802Z,9.25
2022-10-30T01:08:19.274Z,7.28
2022-10-30T01:15:18.702Z,8.73
2022-10-30T01:18:34.188Z,9.98
2022-10-30T01:22:01.907Z,11.70
2022-10-30T01:25:16.011Z,7.78
2022-10-30T01:28:29.445Z,11.43
2022-10-30T01:31:39.045Z,10.18
2022-10-30T01:34:44.284Z,9.70
2022-10-30T01:37:51.345Z,7.78
2022-10-30T01:40:54.133Z,5.95
2022-10-30T01:44:00.499Z,11.88
2022-10-30T01:47:17.572Z,10.68
2022-10-30T01:50:24.201Z,9.85
2022-10-30T01:53:38.090Z,8.52
2022-10-30T01:56:44.874Z,8.32
2022-10-30T01:59:52.234Z,10.80
2022-10-30T02:02:57.435Z,11.45
2022-10-30T02:06:00.276Z,11.40
2022-10-30T02:09:04.912Z,11.05
2022-10-30T02:12:08.430Z,8.05
2022-10-30T02:15:12.064Z,9.73
2022-10-30T02:18:14.541Z,11.00
2022-10-30T02:21:18.374Z,9.82
2022-10-30T02:24:20.823Z,10.40
2022-10-30T02:27:24.368Z,9.73
2022-10-30T02:30:27.608Z,11.60
2022-10-30T02:33:30.027Z,9.52
2022-10-30T02:36:33.854Z,7.88
2022-10-30T02:39:36.292Z,6.90
2022-10-30T02:42:39.461Z,9.98
2022-10-30T02:45:42.008Z,9.07
2022-10-30T02:48:44.901Z,8.60
2022-10-30T02:51:49.969Z,6.95
2022-10-30T02:54:53.423Z,8.75
2022-10-30T02:57:55.926Z,9.55
2022-10-30T03:00:58.399Z,8.10
2022-10-30T03:04:01.653Z,8.43
2022-10-30T03:07:06.000Z,11.35
2022-10-30T03:10:09.065Z,10.15
2022-10-30T03:13:11.827Z,6.25
2022-10-30T03:16:15.752Z,7.97
2022-10-30T03:19:18.383Z,8.68
2022-10-30T03:22:23.069Z,8.15
2022-10-30T03:25:25.571Z,8.32
2022-10-30T03:28:32.790Z,9.52
2022-10-30T03:31:35.243Z,11.48
2022-10-30T03:34:48.933Z,9.75
2022-10-30T03:37:52.953Z,11.02
2022-10-30T03:40:55.918Z,7.32
2022-10-30T03:43:58.445Z,7.38
2022-10-30T03:47:01.065Z,8.02
2022-10-30T03:50:19.816Z,8.93
2022-10-30T03:53:26.018Z,8.15
2022-10-30T03:56:28.472Z,12.00
2022-10-30T03:59:34.747Z,8.43
2022-10-30T04:03:07.248Z,8.18
2022-10-30T04:06:14.828Z,9.63
2022-10-30T04:09:18.654Z,7.55
2022-10-30T04:12:22.751Z,9.00
2022-10-30T04:15:26.382Z,14.60
2022-10-30T04:18:29.468Z,7.57
2022-10-30T04:21:33.569Z,12.32
2022-10-30T04:24:39.484Z,6.43
2022-10-30T04:27:42.156Z,7.80
2022-10-30T04:30:46.810Z,8.73
2022-10-30T04:33:51.097Z,8.05
2022-10-30T04:36:53.559Z,9.73
2022-10-30T04:39:57.408Z,9.50
2022-10-30T04:43:03.993Z,8.52
2022-10-30T04:46:06.820Z,8.00
2022-10-30T04:49:09.285Z,7.95
2022-10-30T04:52:11.700Z,5.97
2022-10-30T04:55:15.579Z,6.18
2022-10-30T04:58:20.913Z,5.55
2022-10-30T05:01:28.830Z,14.57
2022-10-30T05:04:31.803Z,6.40
2022-10-30T05:07:35.240Z,9.18
2022-10-30T05:10:41.132Z,8.65
2022-10-30T05:13:43.671Z,9.60
2022-10-30T05:16:47.709Z,9.05
2022-10-30T05:19:50.167Z,11.73
2022-10-30T05:22:57.218Z,9.35
2022-10-30T05:26:02.140Z,7.75
2022-10-30T05:29:07.951Z,7.90
2022-10-30T05:32:11.236Z,7.28
2022-10-30T05:35:25.038Z,5.53
2022-10-30T05:38:27.907Z,8.18
2022-10-30T05:41:32.793Z,6.38
2022-10-30T05:44:59.095Z,8.77
2022-10-30T05:48:01.348Z,6.70
2022-10-30T05:51:08.693Z,6.85
2022-10-30T05:54:17.446Z,6.53
2022-10-30T05:57:34.287Z,8.30
2022-10-30T06:00:39.140Z,12.32
2022-10-30T06:03:42.699Z,6.03
2022-10-30T06:06:45.194Z,9.57
2022-10-30T06:09:47.766Z,11.13
2022-10-30T06:13:46.498Z,9.10
2022-10-30T06:16:53.336Z,12.30
2022-10-30T06:20:08.010Z,9.98
2022-10-30T06:23:39.255Z,6.15
2022-10-30T06:26:52.824Z,11.32
2022-10-30T06:29:56.546Z,10.82
2022-10-30T06:33:02.102Z,5.80
2022-10-30T06:36:05.266Z,5.43
2022-10-30T06:39:09.297Z,8.48
2022-10-30T06:42:25.711Z,8.85
2022-10-30T06:45:50.678Z,9.23
2022-10-30T06:48:54.625Z,8.80
2022-10-30T06:51:57.672Z,8.55
2022-10-30T06:55:26.754Z,6.70
2022-10-30T06:58:59.681Z,9.70
2022-10-30T07:10:11.002Z,7.97
2022-10-30T07:18:15.653Z,8.93
2022-10-30T07:22:13.123Z,15.45
2022-10-30T07:25:32.158Z,17.05
2022-10-30T07:33:08.217Z,22.20
2022-10-30T07:36:54.544Z,19.02
2022-10-30T07:45:19.353Z,23.50
2022-10-30T07:49:29.686Z,17.23
2022-10-30T07:53:50.313Z,16.65
2022-10-30T07:57:34.018Z,11.75
2022-10-30T08:01:15.820Z,16.33
2022-10-30T08:10:09.151Z,12.32
2022-10-30T08:23:04.941Z,13.32
2022-10-30T08:26:23.502Z,13.63
2022-10-30T08:37:11.202Z,22.58
2022-10-30T08:40:34.335Z,24.65
2022-10-30T08:43:56.294Z,16.23
2022-10-30T08:47:13.578Z,10.45
2022-10-30T08:51:16.044Z,8.55
2022-10-30T08:54:33.864Z,13.90
2022-10-30T08:58:00.403Z,6.82
2022-10-30T09:01:13.849Z,16.02
2022-10-30T09:04:53.373Z,14.07
2022-10-30T09:08:25.047Z,8.50
2022-10-30T09:12:19.678Z,10.00
2022-10-30T09:19:31.370Z,12.00
2022-10-30T09:22:43.644Z,15.52
2022-10-30T09:25:53.978Z,16.30
2022-10-30T09:29:23.526Z,14.00
2022-10-30T09:37:44.671Z,11.57
2022-10-30T09:41:18.000Z,8.95
2022-10-30T09:48:55.415Z,17.98
2022-10-30T09:52:29.927Z,16.08
2022-10-30T09:55:41.955Z,17.25
2022-10-30T09:58:58.618Z,21.08
2022-10-30T10:02:12.690Z,7.72
2022-10-30T10:05:34.040Z,9.85
2022-10-30T10:09:03.353Z,10.43
2022-10-30T10:12:47.689Z,14.95
2022-10-30T10:16:21.187Z,12.20
2022-10-30T10:19:43.857Z,14.10
2022-10-30T10:22:51.412Z,21.17
2022-10-30T10:26:08.365Z,13.48
2022-10-30T10:29:42.600Z,8.57
2022-10-30T10:33:09.896Z,13.73
2022-10-30T10:36:31.670Z,16.55
2022-10-30T10:40:02.848Z,10.05
2022-10-30T10:43:25.231Z,6.72
2022-10-30T10:46:43.003Z,13.10
2022-10-30T10:50:01.102Z,17.20
2022-10-30T10:53:14.522Z,16.08
2022-10-30T10:56:22.301Z,12.15
2022-10-30T10:59:38.906Z,10.88
2022-10-30T11:03:44.282Z,18.15
2022-10-30T11:11:44.741Z,19.02
2022-10-30T11:14:50.296Z,12.27
2022-10-30T11:23:25.874Z,17.40
2022-10-30T11:26:35.219Z,15.98
2022-10-30T11:29:53.008Z,18.95
2022-10-30T11:33:00.776Z,9.43
2022-10-30T11:36:15.732Z,21.50
2022-10-30T11:39:37.227Z,10.18
2022-10-30T11:42:50.903Z,7.72
2022-10-30T11:46:07.479Z,7.95
2022-10-30T11:49:28.738Z,12.77
2022-10-30T11:52:41.419Z,13.55
2022-10-30T11:55:50.387Z,12.20
2022-10-30T11:59:12.102Z,5.28
2022-10-30T12:02:24.228Z,17.67
2022-10-30T12:05:35.697Z,14.50
2022-10-30T12:08:45.069Z,8.75
2022-10-30T12:12:01.810Z,8.18
2022-10-30T12:15:14.397Z,10.95
2022-10-30T12:18:32.422Z,15.43
2022-10-30T12:21:41.689Z,13.00
2022-10-30T12:24:46.608Z,9.85
2022-10-30T12:28:05.808Z,16.52
2022-10-30T12:31:18.804Z,8.85
2022-10-30T12:34:43.882Z,14.18
2022-10-30T12:37:54.500Z,15.18
2022-10-30T12:41:14.814Z,12.65
2022-10-30T12:44:26.470Z,10.05
2022-10-30T12:47:52.887Z,19.05
2022-10-30T12:51:21.329Z,12.98
2022-10-30T12:55:14.546Z,25.58
2022-10-30T12:58:30.894Z,10.55
2022-10-30T13:01:43.631Z,11.57
2022-10-30T13:04:56.874Z,15.05
2022-10-30T13:08:21.286Z,14.93
2022-10-30T13:11:31.765Z,9.43
2022-10-30T13:14:44.770Z,10.98
2022-10-30T13:17:51.950Z,18.83
2022-10-30T13:21:24.852Z,12.20
2022-10-30T13:24:51.777Z,10.13
2022-10-30T13:28:05.906Z,14.27
2022-10-30T13:31:20.139Z,10.43
2022-10-30T13:34:41.937Z,11.45
2022-10-30T13:37:53.217Z,8.75
2022-10-30T13:41:09.533Z,8.23
2022-10-30T13:44:26.722Z,14.05
2022-10-30T13:51:53.964Z,11.40
2022-10-30T13:56:26.429Z,27.92
2022-10-30T13:59:46.058Z,32.38
2022-10-30T14:03:18.875Z,11.77
2022-10-30T14:06:40.524Z,19.08
2022-10-30T14:10:02.948Z,38.97
2022-10-30T14:13:49.499Z,24.38
2022-10-30T14:17:22.376Z,13.68
2022-10-30T14:20:31.367Z,17.65
2022-10-30T14:23:40.180Z,12.95
2022-10-30T14:26:51.710Z,14.35
2022-10-30T14:30:02.116Z,10.07
2022-10-30T14:33:32.001Z,11.95
2022-10-30T14:36:57.622Z,12.77
2022-10-30T14:40:32.342Z,13.30
2022-10-30T14:43:43.531Z,17.45
2022-10-30T14:47:01.868Z,11.90
2022-10-30T14:50:14.140Z,10.93
2022-10-30T14:53:28.381Z,15.30
2022-10-30T14:56:39.310Z,22.98
2022-10-30T14:59:49.941Z,15.70
2022-10-30T15:03:09.113Z,14.02
2022-10-30T15:06:22.941Z,9.43
2022-10-30T15:09:42.088Z,11.38
2022-10-30T15:13:02.667Z,12.48
2022-10-30T15:16:09.724Z,7.78
2022-10-30T15:19:22.978Z,9.57
2022-10-30T15:22:31.529Z,17.83
2022-10-30T15:25:40.525Z,12.10
2022-10-30T15:28:52.048Z,10.93
2022-10-30T15:32:04.578Z,9.55
2022-10-30T15:35:18.796Z,10.95
2022-10-30T15:38:24.381Z,8.82
2022-10-30T15:41:42.610Z,10.80
2022-10-30T15:44:53.916Z,16.52
2022-10-30T15:48:03.045Z,9.75
2022-10-30T15:51:18.604Z,16.00
2022-10-30T15:54:25.144Z,10.00
2022-10-30T16:01:36.390Z,6.63
2022-10-30T16:04:46.080Z,10.80
2022-10-30T16:07:57.006Z,13.00
2022-10-30T16:10:59.824Z,9.80
2022-10-30T16:14:07.808Z,14.70
2022-10-30T16:17:13.392Z,15.30
2022-10-30T16:20:17.911Z,14.25
2022-10-30T16:23:22.389Z,9.65
2022-10-30T16:26:44.390Z,13.50
2022-10-30T16:29:55.361Z,13.85
2022-10-30T16:36:50.634Z,12.13
2022-10-30T16:40:06.960Z,9.02
2022-10-30T16:43:25.441Z,12.75
2022-10-30T16:46:48.122Z,12.57
2022-10-30T16:53:38.584Z,12.30
2022-10-30T17:02:13.496Z,12.43
2022-10-30T17:06:36.225Z,16.02
2022-10-30T17:10:10.416Z,14.00
2022-10-30T17:13:49.341Z,12.38
2022-10-30T17:16:54.684Z,14.77
2022-10-30T17:20:05.680Z,19.23
2022-10-30T17:23:14.659Z,18.05
2022-10-30T17:26:18.215Z,22.13
2022-10-30T17:29:44.471Z,19.92
2022-10-30T17:32:47.063Z,19.70
2022-10-30T17:35:49.822Z,20.58
2022-10-30T17:38:52.459Z,20.67
2022-10-30T17:41:56.978Z,14.10
2022-10-30T17:45:01.229Z,18.38
2022-10-30T17:48:04.136Z,16.70
2022-10-30T17:51:06.770Z,19.67
2022-10-30T17:54:12.232Z,17.30
2022-10-30T17:57:15.677Z,16.33
2022-10-30T18:00:22.428Z,18.13
2022-10-30T18:03:25.042Z,16.38
2022-10-30T18:06:28.853Z,21.05
2022-10-30T18:09:31.403Z,22.48
2022-10-30T18:12:33.978Z,22.58
2022-10-30T18:15:42.307Z,16.52
2022-10-30T18:18:45.339Z,30.40
2022-10-30T18:21:51.531Z,21.70
2022-10-30T18:24:54.146Z,21.67
2022-10-30T18:27:56.675Z,20.58
2022-10-30T18:31:01.222Z,18.40
2022-10-30T18:34:04.521Z,25.98
2022-10-30T18:37:09.332Z,23.10
2022-10-30T18:40:12.152Z,24.70
2022-10-30T18:43:15.075Z,29.48
2022-10-30T18:46:19.103Z,20.58
2022-10-30T18:49:24.290Z,23.23
2022-10-30T18:52:26.853Z,22.83
2022-10-30T18:55:33.143Z,23.25
2022-10-30T18:58:35.795Z,34.65
2022-10-30T19:01:42.098Z,28.52
2022-10-30T19:04:45.007Z,43.67
2022-10-30T19:07:48.218Z,39.72
2022-10-30T19:10:50.762Z,48.35
2022-10-30T19:13:53.537Z,59.45
2022-10-30T19:16:57.340Z,58.25
2022-10-30T19:19:59.835Z,53.13
2022-10-30T19:23:03.318Z,51.33
2022-10-30T19:26:06.032Z,38.08
2022-10-30T19:32:42.150Z,38.65
2022-10-30T19:35:44.845Z,31.33
2022-10-30T19:38:47.289Z,33.92
2022-10-30T19:41:50.315Z,27.08
2022-10-30T19:44:53.153Z,28.67
2022-10-30T19:48:00.717Z,42.90
2022-10-30T19:51:03.595Z,34.83
2022-10-30T19:54:06.181Z,34.40
2022-10-30T19:57:13.011Z,28.60
2022-10-30T20:00:18.442Z,31.38
2022-10-30T20:03:22.888Z,27.65
2022-10-30T20:06:27.059Z,26.45
2022-10-30T20:09:31.039Z,34.05
2022-10-30T20:12:33.904Z,39.92
2022-10-30T20:15:36.781Z,36.30
2022-10-30T20:18:41.810Z,35.42
2022-10-30T20:21:44.433Z,31.38
2022-10-30T20:24:46.917Z,30.20
2022-10-30T20:27:50.293Z,28.80
2022-10-30T20:30:53.712Z,40.80
2022-10-30T20:33:58.033Z,28.75
2022-10-30T20:37:00.881Z,25.13
2022-10-30T20:40:03.989Z,33.97
2022-10-30T20:43:32.975Z,31.27
2022-10-30T20:46:36.228Z,32.97
2022-10-30T20:49:40.073Z,30.45
2022-10-30T20:52:42.760Z,27.63
2022-10-30T20:55:45.281Z,32.53
2022-10-30T20:58:47.794Z,33.78
2022-10-30T21:01:50.327Z,32.33
2022-10-30T21:04:54.585Z,28.80
2022-10-30T21:07:58.011Z,28.17
2022-10-30T21:11:01.212Z,31.90
2022-10-30T21:14:03.769Z,32.78
2022-10-30T21:17:08.614Z,31.95
2022-10-30T21:20:13.712Z,36.28
2022-10-30T21:23:16.188Z,31.13
2022-10-30T21:26:18.734Z,29.45
2022-10-30T21:29:21.253Z,27.73
2022-10-30T21:32:23.752Z,35.90
2022-10-30T21:35:28.816Z,30.70
2022-10-30T21:38:32.798Z,32.60
2022-10-30T21:41:35.546Z,36.50
2022-10-30T21:44:38.069Z,36.10
2022-10-30T21:47:40.587Z,31.50
2022-10-30T21:50:51.873Z,33.38
2022-10-30T21:53:56.837Z,35.35
2022-10-30T21:56:59.359Z,32.17
2022-10-30T22:00:05.928Z,27.30
2022-10-30T22:03:11.448Z,31.35
2022-10-30T22:06:16.438Z,34.50
2022-10-30T22:09:19.421Z,30.63
2022-10-30T22:12:21.877Z,31.58
2022-10-30T22:15:24.482Z,39.70
2022-10-30T22:18:27.533Z,30.90
2022-10-30T22:21:31.918Z,31.63
2022-10-30T22:24:36.214Z,29.73
2022-10-30T22:27:48.718Z,42.90
2022-10-30T22:30:51.605Z,33.13
2022-10-30T22:33:54.442Z,32.20
2022-10-30T22:36:58.424Z,37.25
2022-10-30T22:40:04.164Z,29.90
2022-10-30T22:43:07.171Z,36.90
2022-10-30T22:46:10.515Z,33.85
2022-10-30T22:49:13.269Z,32.33
2022-10-30T22:52:17.151Z,40.65
2022-10-30T22:55:19.654Z,37.80
2022-10-30T22:58:23.747Z,41.22
2022-10-30T23:01:30.601Z,31.85
2022-10-30T23:04:33.400Z,38.40
2022-10-30T23:07:39.401Z,40.05
2022-10-30T23:10:41.823Z,37.42
2022-10-30T23:13:45.226Z,37.70
2022-10-30T23:20:06.644Z,37.58
2022-10-30T23:23:29.819Z,36.03
2022-10-30T23:26:41.599Z,35.05
2022-10-30T23:29:54.318Z,33.78
2022-10-30T23:33:08.651Z,26.02
2022-10-30T23:36:24.825Z,30.85
2022-10-30T23:39:30.038Z,26.60
2022-10-30T23:42:49.503Z,29.38
2022-10-30T23:46:00.180Z,22.10
2022-10-30T23:49:04.037Z,24.88
2022-10-30T23:52:11.934Z,22.70
2022-10-30T23:55:29.580Z,25.63
2022-10-30T23:58:34.003Z,15.88
